sensor_id;sensor_type;location;lat;lon;timestamp;pressure;altitude;pressure_sealevel;temperature;humidity
49030;BME280;43337;52.070;4.508;2023-10-13T00:01:57;101268.09;;;16.46;100.00
49030;BME280;43337;52.070;4.508;2023-10-13T00:04:30;101290.50;;;16.56;100.00
49030;BME280;43337;52.070;4.508;2023-10-13T00:06:58;101268.28;;;16.43;100.00
49030;BME280;43337;52.070;4.508;2023-10-13T00:09:24;101246.75;;;16.33;100.00
49030;BME280;43337;52.070;4.508;2023-10-13T00:12:02;101272.34;;;16.49;100.00
49030;BME280;43337;52.070;4.508;2023-10-13T00:14:38;101276.47;;;16.54;100.00
49030;BME280;43337;52.070;4.508;2023-10-13T00:17:05;101236.34;;;16.29;100.00
49030;BME280;43337;52.070;4.508;2023-10-13T00:19:34;101264.31;;;16.50;100.00
49030;BME280;43337;52.070;4.508;2023-10-13T00:22:09;101228.88;;;16.35;100.00
49030;BME280;43337;52.070;4.508;2023-10-13T00:24:39;101242.06;;;16.37;100.00
49030;BME280;43337;52.070;4.508;2023-10-13T00:27:12;101252.16;;;16.46;100.00
49030;BME280;43337;52.070;4.508;2023-10-13T00:29:50;101258.88;;;16.52;100.00
49030;BME280;43337;52.070;4.508;2023-10-13T00:32:37;101243.78;;;16.38;100.00
49030;BME280;43337;52.070;4.508;2023-10-13T00:35:05;101234.97;;;16.38;100.00
49030;BME280;43337;52.070;4.508;2023-10-13T00:37:31;101255.56;;;16.48;100.00
49030;BME280;43337;52.070;4.508;2023-10-13T00:40:06;101245.88;;;16.47;100.00
49030;BME280;43337;52.070;4.508;2023-10-13T00:42:42;101214.25;;;16.28;100.00
49030;BME280;43337;52.070;4.508;2023-10-13T00:45:16;101231.19;;;16.42;100.00
49030;BME280;43337;52.070;4.508;2023-10-13T00:47:42;101223.75;;;16.32;100.00
49030;BME280;43337;52.070;4.508;2023-10-13T00:50:15;101229.56;;;16.39;100.00
49030;BME280;43337;52.070;4.508;2023-10-13T00:52:43;101231.75;;;16.47;100.00
49030;BME280;43337;52.070;4.508;2023-10-13T00:55:13;101203.63;;;16.28;100.00
49030;BME280;43337;52.070;4.508;2023-10-13T00:57:39;101223.09;;;16.43;100.00
49030;BME280;43337;52.070;4.508;2023-10-13T01:00:08;101223.88;;;16.45;100.00
49030;BME280;43337;52.070;4.508;2023-10-13T01:02:50;101204.22;;;16.33;100.00
49030;BME280;43337;52.070;4.508;2023-10-13T01:05:22;101215.03;;;16.45;100.00
49030;BME280;43337;52.070;4.508;2023-10-13T01:07:49;101192.44;;;16.38;100.00
49030;BME280;43337;52.070;4.508;2023-10-13T01:10:18;101204.50;;;16.43;100.00
49030;BME280;43337;52.070;4.508;2023-10-13T01:12:46;101165.56;;;16.28;100.00
49030;BME280;43337;52.070;4.508;2023-10-13T01:15:12;101148.56;;;16.16;100.00
49030;BME280;43337;52.070;4.508;2023-10-13T01:17:42;101196.63;;;16.42;100.00
49030;BME280;43337;52.070;4.508;2023-10-13T01:20:15;101150.09;;;16.20;100.00
49030;BME280;43337;52.070;4.508;2023-10-13T01:22:51;101167.19;;;16.30;100.00
49030;BME280;43337;52.070;4.508;2023-10-13T01:25:24;101143.16;;;16.18;100.00
49030;BME280;43337;52.070;4.508;2023-10-13T01:27:53;101159.31;;;16.29;100.00
49030;BME280;43337;52.070;4.508;2023-10-13T01:30:19;101153.44;;;16.24;100.00
49030;BME280;43337;52.070;4.508;2023-10-13T01:32:51;101164.91;;;16.39;100.00
49030;BME280;43337;52.070;4.508;2023-10-13T01:35:19;101149.53;;;16.29;100.00
49030;BME280;43337;52.070;4.508;2023-10-13T01:37:50;101184.19;;;16.42;100.00
49030;BME280;43337;52.070;4.508;2023-10-13T01:40:16;101147.94;;;16.27;100.00
49030;BME280;43337;52.070;4.508;2023-10-13T01:42:48;101141.75;;;16.26;100.00
49030;BME280;43337;52.070;4.508;2023-10-13T01:45:23;101133.03;;;16.24;100.00
49030;BME280;43337;52.070;4.508;2023-10-13T01:47:54;101149.16;;;16.35;100.00
49030;BME280;43337;52.070;4.508;2023-10-13T01:50:19;101128.66;;;16.23;100.00
49030;BME280;43337;52.070;4.508;2023-10-13T01:52:54;101111.50;;;16.15;100.00
49030;BME280;43337;52.070;4.508;2023-10-13T01:55:37;101155.88;;;16.41;100.00
49030;BME280;43337;52.070;4.508;2023-10-13T01:58:04;101100.38;;;16.08;100.00
49030;BME280;43337;52.070;4.508;2023-10-13T02:00:39;101109.22;;;16.23;100.00
49030;BME280;43337;52.070;4.508;2023-10-13T02:03:08;101110.63;;;16.28;100.00
49030;BME280;43337;52.070;4.508;2023-10-13T02:05:39;101088.16;;;16.20;100.00
49030;BME280;43337;52.070;4.508;2023-10-13T02:08:08;101090.69;;;16.21;100.00
49030;BME280;43337;52.070;4.508;2023-10-13T02:10:36;101114.50;;;16.37;100.00
49030;BME280;43337;52.070;4.508;2023-10-13T02:13:12;101093.16;;;16.24;100.00
49030;BME280;43337;52.070;4.508;2023-10-13T02:15:40;101087.00;;;16.24;100.00
49030;BME280;43337;52.070;4.508;2023-10-13T02:18:08;101054.66;;;16.03;100.00
49030;BME280;43337;52.070;4.508;2023-10-13T02:20:34;101067.56;;;16.09;100.00
49030;BME280;43337;52.070;4.508;2023-10-13T02:23:09;101102.38;;;16.33;100.00
49030;BME280;43337;52.070;4.508;2023-10-13T02:25:37;101096.19;;;16.32;100.00
49030;BME280;43337;52.070;4.508;2023-10-13T02:28:11;101086.63;;;16.30;100.00
49030;BME280;43337;52.070;4.508;2023-10-13T02:30:41;101090.03;;;16.32;100.00
49030;BME280;43337;52.070;4.508;2023-10-13T02:33:09;101048.47;;;16.17;100.00
49030;BME280;43337;52.070;4.508;2023-10-13T02:35:37;101065.38;;;16.30;100.00
49030;BME280;43337;52.070;4.508;2023-10-13T02:38:09;101032.47;;;16.18;100.00
49030;BME280;43337;52.070;4.508;2023-10-13T02:40:40;101057.59;;;16.27;100.00
49030;BME280;43337;52.070;4.508;2023-10-13T02:43:05;101043.53;;;16.25;100.00
49030;BME280;43337;52.070;4.508;2023-10-13T02:45:32;101040.22;;;16.21;100.00
49030;BME280;43337;52.070;4.508;2023-10-13T02:48:01;101038.34;;;16.23;100.00
49030;BME280;43337;52.070;4.508;2023-10-13T02:50:42;101019.53;;;16.26;100.00
49030;BME280;43337;52.070;4.508;2023-10-13T02:53:11;101016.31;;;16.21;100.00
49030;BME280;43337;52.070;4.508;2023-10-13T02:55:53;101019.91;;;16.20;100.00
49030;BME280;43337;52.070;4.508;2023-10-13T02:58:41;101016.13;;;16.24;100.00
49030;BME280;43337;52.070;4.508;2023-10-13T03:01:20;100998.47;;;16.23;100.00
49030;BME280;43337;52.070;4.508;2023-10-13T03:03:50;101005.59;;;16.23;100.00
49030;BME280;43337;52.070;4.508;2023-10-13T03:06:20;100997.66;;;16.08;100.00
49030;BME280;43337;52.070;4.508;2023-10-13T03:09:04;100991.53;;;16.21;100.00
49030;BME280;43337;52.070;4.508;2023-10-13T03:11:40;100987.56;;;16.14;100.00
49030;BME280;43337;52.070;4.508;2023-10-13T03:14:13;100987.38;;;16.17;100.00
49030;BME280;43337;52.070;4.508;2023-10-13T03:16:52;100965.59;;;16.11;100.00
49030;BME280;43337;52.070;4.508;2023-10-13T03:19:24;100955.63;;;16.15;100.00
49030;BME280;43337;52.070;4.508;2023-10-13T03:21:58;100945.06;;;16.14;100.00
49030;BME280;43337;52.070;4.508;2023-10-13T03:24:31;100949.53;;;16.13;100.00
49030;BME280;43337;52.070;4.508;2023-10-13T03:27:03;100915.78;;;16.01;100.00
49030;BME280;43337;52.070;4.508;2023-10-13T03:29:35;100925.09;;;16.08;100.00
49030;BME280;43337;52.070;4.508;2023-10-13T03:32:00;100916.44;;;16.04;100.00
49030;BME280;43337;52.070;4.508;2023-10-13T03:34:33;100894.00;;;15.96;100.00
49030;BME280;43337;52.070;4.508;2023-10-13T03:37:00;100909.22;;;16.06;100.00
49030;BME280;43337;52.070;4.508;2023-10-13T03:39:35;100898.72;;;16.05;100.00
49030;BME280;43337;52.070;4.508;2023-10-13T03:42:01;100892.75;;;16.01;100.00
49030;BME280;43337;52.070;4.508;2023-10-13T03:44:30;100869.63;;;15.89;100.00
49030;BME280;43337;52.070;4.508;2023-10-13T03:46:56;100882.59;;;15.94;100.00
49030;BME280;43337;52.070;4.508;2023-10-13T03:49:22;100878.25;;;15.93;100.00
49030;BME280;43337;52.070;4.508;2023-10-13T03:51:50;100866.44;;;15.84;100.00
49030;BME280;43337;52.070;4.508;2023-10-13T03:54:19;100883.47;;;15.94;100.00
49030;BME280;43337;52.070;4.508;2023-10-13T03:56:44;100861.78;;;15.88;100.00
49030;BME280;43337;52.070;4.508;2023-10-13T03:59:11;100865.28;;;15.88;100.00
49030;BME280;43337;52.070;4.508;2023-10-13T04:01:48;100859.75;;;15.91;100.00
49030;BME280;43337;52.070;4.508;2023-10-13T04:04:28;100859.75;;;15.91;100.00
49030;BME280;43337;52.070;4.508;2023-10-13T04:07:00;100850.28;;;15.87;100.00
49030;BME280;43337;52.070;4.508;2023-10-13T04:09:36;100849.44;;;15.86;100.00
49030;BME280;43337;52.070;4.508;2023-10-13T04:12:04;100854.34;;;15.93;100.00
49030;BME280;43337;52.070;4.508;2023-10-13T04:14:38;100846.47;;;15.91;100.00
49030;BME280;43337;52.070;4.508;2023-10-13T04:17:22;100842.88;;;15.92;100.00
49030;BME280;43337;52.070;4.508;2023-10-13T04:19:50;100838.88;;;15.99;100.00
49030;BME280;43337;52.070;4.508;2023-10-13T04:22:41;100851.09;;;16.02;100.00
49030;BME280;43337;52.070;4.508;2023-10-13T04:25:17;100825.50;;;16.01;100.00
49030;BME280;43337;52.070;4.508;2023-10-13T04:28:02;100840.63;;;16.13;100.00
49030;BME280;43337;52.070;4.508;2023-10-13T04:30:58;100822.69;;;16.17;100.00
49030;BME280;43337;52.070;4.508;2023-10-13T04:33:23;100821.44;;;16.22;100.00
49030;BME280;43337;52.070;4.508;2023-10-13T04:36:15;100819.53;;;16.24;100.00
49030;BME280;43337;52.070;4.508;2023-10-13T04:38:51;100816.47;;;16.30;100.00
49030;BME280;43337;52.070;4.508;2023-10-13T04:41:35;100811.88;;;16.32;100.00
49030;BME280;43337;52.070;4.508;2023-10-13T04:44:15;100809.78;;;16.38;100.00
49030;BME280;43337;52.070;4.508;2023-10-13T04:47:00;100812.88;;;16.44;100.00
49030;BME280;43337;52.070;4.508;2023-10-13T04:49:26;100803.72;;;16.48;100.00
49030;BME280;43337;52.070;4.508;2023-10-13T04:52:16;100774.59;;;16.34;100.00
49030;BME280;43337;52.070;4.508;2023-10-13T04:55:00;100811.41;;;16.53;100.00
49030;BME280;43337;52.070;4.508;2023-10-13T04:57:42;100794.72;;;16.51;100.00
49030;BME280;43337;52.070;4.508;2023-10-13T05:00:11;100794.59;;;16.52;100.00
49030;BME280;43337;52.070;4.508;2023-10-13T05:02:38;100797.03;;;16.55;100.00
49030;BME280;43337;52.070;4.508;2023-10-13T05:05:14;100800.66;;;16.54;100.00
49030;BME280;43337;52.070;4.508;2023-10-13T05:07:43;100775.00;;;16.41;100.00
49030;BME280;43337;52.070;4.508;2023-10-13T05:10:31;100783.97;;;16.52;100.00
49030;BME280;43337;52.070;4.508;2023-10-13T05:13:15;100775.56;;;16.46;100.00
49030;BME280;43337;52.070;4.508;2023-10-13T05:15:59;100778.13;;;16.47;100.00
49030;BME280;43337;52.070;4.508;2023-10-13T05:18:43;100752.06;;;16.40;100.00
49030;BME280;43337;52.070;4.508;2023-10-13T05:21:27;100747.28;;;16.32;100.00
49030;BME280;43337;52.070;4.508;2023-10-13T05:24:12;100755.25;;;16.32;100.00
49030;BME280;43337;52.070;4.508;2023-10-13T05:26:56;100740.66;;;16.25;100.00
49030;BME280;43337;52.070;4.508;2023-10-13T05:29:44;100744.09;;;16.27;100.00
49030;BME280;43337;52.070;4.508;2023-10-13T05:32:29;100732.28;;;16.18;100.00
49030;BME280;43337;52.070;4.508;2023-10-13T05:35:13;100728.75;;;16.18;100.00
49030;BME280;43337;52.070;4.508;2023-10-13T05:37:57;100722.06;;;16.12;100.00
49030;BME280;43337;52.070;4.508;2023-10-13T05:40:58;100730.16;;;16.10;100.00
49030;BME280;43337;52.070;4.508;2023-10-13T05:43:43;100720.75;;;16.05;100.00
49030;BME280;43337;52.070;4.508;2023-10-13T05:46:27;100726.28;;;16.02;100.00
49030;BME280;43337;52.070;4.508;2023-10-13T05:48:53;100724.78;;;15.98;100.00
49030;BME280;43337;52.070;4.508;2023-10-13T05:51:29;100713.50;;;15.94;100.00
49030;BME280;43337;52.070;4.508;2023-10-13T05:53:59;100706.63;;;15.92;100.00
49030;BME280;43337;52.070;4.508;2023-10-13T05:56:44;100702.88;;;15.94;100.00
49030;BME280;43337;52.070;4.508;2023-10-13T05:59:29;100694.00;;;15.95;100.00
49030;BME280;43337;52.070;4.508;2023-10-13T06:02:18;100692.28;;;15.94;100.00
49030;BME280;43337;52.070;4.508;2023-10-13T06:05:10;100688.88;;;15.92;100.00
49030;BME280;43337;52.070;4.508;2023-10-13T06:07:55;100705.47;;;15.96;100.00
49030;BME280;43337;52.070;4.508;2023-10-13T06:10:39;100696.53;;;15.97;100.00
49030;BME280;43337;52.070;4.508;2023-10-13T06:13:24;100667.00;;;15.89;100.00
49030;BME280;43337;52.070;4.508;2023-10-13T06:16:09;100678.78;;;15.97;100.00
49030;BME280;43337;52.070;4.508;2023-10-13T06:18:53;100665.63;;;15.96;100.00
49030;BME280;43337;52.070;4.508;2023-10-13T06:21:38;100659.25;;;15.98;100.00
49030;BME280;43337;52.070;4.508;2023-10-13T06:24:22;100664.88;;;16.06;100.00
49030;BME280;43337;52.070;4.508;2023-10-13T06:27:06;100645.56;;;16.04;100.00
49030;BME280;43337;52.070;4.508;2023-10-13T06:29:50;100651.72;;;16.18;100.00
49030;BME280;43337;52.070;4.508;2023-10-13T06:32:15;100645.16;;;16.23;100.00
49030;BME280;43337;52.070;4.508;2023-10-13T06:34:42;100643.00;;;16.28;100.00
49030;BME280;43337;52.070;4.508;2023-10-13T06:37:14;100638.25;;;16.33;100.00
49030;BME280;43337;52.070;4.508;2023-10-13T06:39:51;100637.06;;;16.38;100.00
49030;BME280;43337;52.070;4.508;2023-10-13T06:42:21;100633.34;;;16.40;100.00
49030;BME280;43337;52.070;4.508;2023-10-13T06:44:47;100628.31;;;16.48;100.00
49030;BME280;43337;52.070;4.508;2023-10-13T06:47:13;100630.56;;;16.54;100.00
49030;BME280;43337;52.070;4.508;2023-10-13T06:49:41;100622.59;;;16.54;100.00
49030;BME280;43337;52.070;4.508;2023-10-13T06:52:09;100623.44;;;16.55;100.00
49030;BME280;43337;52.070;4.508;2023-10-13T06:54:35;100629.06;;;16.63;100.00
49030;BME280;43337;52.070;4.508;2023-10-13T06:57:02;100616.31;;;16.68;100.00
49030;BME280;43337;52.070;4.508;2023-10-13T06:59:31;100621.50;;;16.70;100.00
49030;BME280;43337;52.070;4.508;2023-10-13T07:02:00;100621.09;;;16.76;100.00
49030;BME280;43337;52.070;4.508;2023-10-13T07:04:31;100637.78;;;16.78;100.00
49030;BME280;43337;52.070;4.508;2023-10-13T07:06:57;100622.59;;;16.80;100.00
49030;BME280;43337;52.070;4.508;2023-10-13T07:09:22;100617.78;;;16.85;100.00
49030;BME280;43337;52.070;4.508;2023-10-13T07:12:00;100613.50;;;16.82;100.00
49030;BME280;43337;52.070;4.508;2023-10-13T07:14:29;100631.34;;;16.93;100.00
49030;BME280;43337;52.070;4.508;2023-10-13T07:17:04;100601.59;;;16.88;100.00
49030;BME280;43337;52.070;4.508;2023-10-13T07:19:31;100612.41;;;16.98;100.00
49030;BME280;43337;52.070;4.508;2023-10-13T07:22:01;100608.56;;;17.02;100.00
49030;BME280;43337;52.070;4.508;2023-10-13T07:24:46;100590.19;;;16.99;100.00
49030;BME280;43337;52.070;4.508;2023-10-13T07:27:18;100608.00;;;17.09;100.00
49030;BME280;43337;52.070;4.508;2023-10-13T07:29:56;100591.41;;;17.06;100.00
49030;BME280;43337;52.070;4.508;2023-10-13T07:32:38;100580.69;;;17.07;100.00
49030;BME280;43337;52.070;4.508;2023-10-13T07:35:11;100605.97;;;17.13;100.00
49030;BME280;43337;52.070;4.508;2023-10-13T07:37:36;100593.69;;;17.23;100.00
49030;BME280;43337;52.070;4.508;2023-10-13T07:40:03;100569.97;;;17.20;100.00
49030;BME280;43337;52.070;4.508;2023-10-13T07:42:46;100584.38;;;17.29;100.00
49030;BME280;43337;52.070;4.508;2023-10-13T07:45:12;100604.47;;;17.33;100.00
49030;BME280;43337;52.070;4.508;2023-10-13T07:47:38;100572.31;;;17.36;100.00
49030;BME280;43337;52.070;4.508;2023-10-13T07:50:05;100580.09;;;17.39;100.00
49030;BME280;43337;52.070;4.508;2023-10-13T07:52:31;100582.75;;;17.39;100.00
49030;BME280;43337;52.070;4.508;2023-10-13T07:55:06;100559.38;;;17.31;100.00
49030;BME280;43337;52.070;4.508;2023-10-13T07:57:40;100556.34;;;17.36;100.00
49030;BME280;43337;52.070;4.508;2023-10-13T08:00:26;100567.78;;;17.49;100.00
49030;BME280;43337;52.070;4.508;2023-10-13T08:03:04;100560.88;;;17.47;100.00
49030;BME280;43337;52.070;4.508;2023-10-13T08:05:45;100583.28;;;17.55;100.00
49030;BME280;43337;52.070;4.508;2023-10-13T08:08:44;100564.53;;;17.57;100.00
49030;BME280;43337;52.070;4.508;2023-10-13T08:11:15;100533.44;;;17.57;100.00
49030;BME280;43337;52.070;4.508;2023-10-13T08:13:59;100548.00;;;17.65;100.00
49030;BME280;43337;52.070;4.508;2023-10-13T08:16:29;100552.94;;;17.69;100.00
49030;BME280;43337;52.070;4.508;2023-10-13T08:19:18;100529.00;;;17.69;100.00
49030;BME280;43337;52.070;4.508;2023-10-13T08:21:48;100530.41;;;17.62;100.00
49030;BME280;43337;52.070;4.508;2023-10-13T08:24:18;100538.53;;;17.72;100.00
49030;BME280;43337;52.070;4.508;2023-10-13T08:27:01;100530.81;;;17.69;100.00
49030;BME280;43337;52.070;4.508;2023-10-13T08:29:39;100496.28;;;17.56;100.00
49030;BME280;43337;52.070;4.508;2023-10-13T08:32:34;100509.38;;;17.70;100.00
49030;BME280;43337;52.070;4.508;2023-10-13T08:35:02;100510.44;;;17.68;100.00
49030;BME280;43337;52.070;4.508;2023-10-13T08:37:33;100506.94;;;17.67;100.00
49030;BME280;43337;52.070;4.508;2023-10-13T08:40:28;100511.91;;;17.72;100.00
49030;BME280;43337;52.070;4.508;2023-10-13T08:43:31;100526.09;;;17.72;100.00
49030;BME280;43337;52.070;4.508;2023-10-13T08:46:08;100508.53;;;17.70;100.00
49030;BME280;43337;52.070;4.508;2023-10-13T08:48:35;100494.13;;;17.72;100.00
49030;BME280;43337;52.070;4.508;2023-10-13T08:51:02;100473.28;;;17.55;100.00
49030;BME280;43337;52.070;4.508;2023-10-13T08:53:37;100500.78;;;17.67;100.00
49030;BME280;43337;52.070;4.508;2023-10-13T08:56:17;100502.63;;;17.77;100.00
49030;BME280;43337;52.070;4.508;2023-10-13T08:58:45;100514.88;;;17.80;100.00
49030;BME280;43337;52.070;4.508;2023-10-13T09:01:34;100484.59;;;17.81;100.00
49030;BME280;43337;52.070;4.508;2023-10-13T09:04:05;100460.88;;;17.78;100.00
49030;BME280;43337;52.070;4.508;2023-10-13T09:06:51;100500.22;;;17.86;100.00
49030;BME280;43337;52.070;4.508;2023-10-13T09:09:44;100478.78;;;17.87;100.00
49030;BME280;43337;52.070;4.508;2023-10-13T09:14:52;100479.66;;;17.88;100.00
49030;BME280;43337;52.070;4.508;2023-10-13T09:17:25;100481.44;;;17.98;100.00
49030;BME280;43337;52.070;4.508;2023-10-13T09:20:00;100471.41;;;18.02;100.00
49030;BME280;43337;52.070;4.508;2023-10-13T09:22:45;100475.66;;;18.04;100.00
49030;BME280;43337;52.070;4.508;2023-10-13T09:25:33;100448.53;;;17.99;100.00
49030;BME280;43337;52.070;4.508;2023-10-13T09:28:00;100454.56;;;18.13;100.00
49030;BME280;43337;52.070;4.508;2023-10-13T09:30:26;100461.34;;;18.17;100.00
49030;BME280;43337;52.070;4.508;2023-10-13T09:33:04;100444.97;;;18.21;100.00
49030;BME280;43337;52.070;4.508;2023-10-13T09:35:30;100451.19;;;18.22;100.00
49030;BME280;43337;52.070;4.508;2023-10-13T09:38:01;100449.97;;;18.26;100.00
49030;BME280;43337;52.070;4.508;2023-10-13T09:40:28;100412.41;;;18.18;100.00
49030;BME280;43337;52.070;4.508;2023-10-13T09:43:03;100446.78;;;18.32;100.00
49030;BME280;43337;52.070;4.508;2023-10-13T09:45:41;100398.38;;;18.16;100.00
49030;BME280;43337;52.070;4.508;2023-10-13T09:48:37;100443.38;;;18.41;100.00
49030;BME280;43337;52.070;4.508;2023-10-13T09:51:12;100396.28;;;18.30;100.00
49030;BME280;43337;52.070;4.508;2023-10-13T09:53:39;100431.81;;;18.52;100.00
49030;BME280;43337;52.070;4.508;2023-10-13T09:56:12;100421.88;;;18.54;100.00
49030;BME280;43337;52.070;4.508;2023-10-13T09:58:53;100392.97;;;18.38;100.00
49030;BME280;43337;52.070;4.508;2023-10-13T10:01:28;100418.69;;;18.60;100.00
49030;BME280;43337;52.070;4.508;2023-10-13T10:04:11;100396.69;;;18.47;100.00
49030;BME280;43337;52.070;4.508;2023-10-13T10:06:57;100394.25;;;18.55;100.00
49030;BME280;43337;52.070;4.508;2023-10-13T10:17:47;100397.56;;;19.00;100.00
49030;BME280;43337;52.070;4.508;2023-10-13T10:20:15;100395.09;;;19.09;100.00
49030;BME280;43337;52.070;4.508;2023-10-13T10:22:57;100409.09;;;19.22;100.00
49030;BME280;43337;52.070;4.508;2023-10-13T10:25:30;100382.00;;;19.26;100.00
49030;BME280;43337;52.070;4.508;2023-10-13T10:28:04;100374.28;;;19.33;100.00
49030;BME280;43337;52.070;4.508;2023-10-13T10:30:37;100344.06;;;19.23;100.00
49030;BME280;43337;52.070;4.508;2023-10-13T10:33:08;100382.31;;;19.33;100.00
49030;BME280;43337;52.070;4.508;2023-10-13T10:35:45;100366.88;;;19.37;100.00
49030;BME280;43337;52.070;4.508;2023-10-13T10:38:16;100351.22;;;19.22;100.00
49030;BME280;43337;52.070;4.508;2023-10-13T10:43:26;100366.44;;;19.32;100.00
49030;BME280;43337;52.070;4.508;2023-10-13T10:45:55;100341.78;;;19.18;100.00
49030;BME280;43337;52.070;4.508;2023-10-13T10:48:25;100350.75;;;19.17;100.00
49030;BME280;43337;52.070;4.508;2023-10-13T10:50:57;100348.06;;;19.08;100.00
49030;BME280;43337;52.070;4.508;2023-10-13T10:53:31;100332.38;;;19.14;100.00
49030;BME280;43337;52.070;4.508;2023-10-13T10:56:06;100343.97;;;19.34;100.00
49030;BME280;43337;52.070;4.508;2023-10-13T10:58:48;100353.66;;;19.35;100.00
49030;BME280;43337;52.070;4.508;2023-10-13T11:01:29;100298.03;;;19.10;100.00
49030;BME280;43337;52.070;4.508;2023-10-13T11:04:05;100323.69;;;19.22;100.00
49030;BME280;43337;52.070;4.508;2023-10-13T11:06:45;100328.47;;;19.28;100.00
49030;BME280;43337;52.070;4.508;2023-10-13T11:09:11;100312.88;;;19.23;100.00
49030;BME280;43337;52.070;4.508;2023-10-13T11:11:55;100324.16;;;19.37;100.00
49030;BME280;43337;52.070;4.508;2023-10-13T11:14:27;100337.66;;;19.35;100.00
49030;BME280;43337;52.070;4.508;2023-10-13T11:17:00;100337.13;;;19.41;100.00
49030;BME280;43337;52.070;4.508;2023-10-13T11:19:37;100272.09;;;19.21;100.00
49030;BME280;43337;52.070;4.508;2023-10-13T11:22:20;100314.22;;;19.48;100.00
49030;BME280;43337;52.070;4.508;2023-10-13T11:25:03;100314.63;;;19.44;100.00
49030;BME280;43337;52.070;4.508;2023-10-13T11:27:41;100301.28;;;19.44;100.00
49030;BME280;43337;52.070;4.508;2023-10-13T11:30:29;100304.97;;;19.52;100.00
49030;BME280;43337;52.070;4.508;2023-10-13T11:33:08;100315.00;;;19.60;100.00
49030;BME280;43337;52.070;4.508;2023-10-13T11:35:37;100314.59;;;19.65;100.00
49030;BME280;43337;52.070;4.508;2023-10-13T11:38:31;100312.88;;;19.64;100.00
49030;BME280;43337;52.070;4.508;2023-10-13T11:41:15;100294.47;;;19.61;100.00
49030;BME280;43337;52.070;4.508;2023-10-13T11:46:15;100303.63;;;19.68;100.00
49030;BME280;43337;52.070;4.508;2023-10-13T11:48:43;100307.09;;;19.59;100.00
49030;BME280;43337;52.070;4.508;2023-10-13T11:51:13;100327.28;;;19.72;100.00
49030;BME280;43337;52.070;4.508;2023-10-13T11:53:57;100310.69;;;19.69;100.00
49030;BME280;43337;52.070;4.508;2023-10-13T11:56:24;100306.72;;;19.63;100.00
49030;BME280;43337;52.070;4.508;2023-10-13T11:58:50;100315.94;;;19.59;100.00
49030;BME280;43337;52.070;4.508;2023-10-13T12:01:35;100308.78;;;19.60;100.00
49030;BME280;43337;52.070;4.508;2023-10-13T12:04:19;100316.13;;;19.67;100.00
49030;BME280;43337;52.070;4.508;2023-10-13T12:07:11;100296.41;;;19.59;100.00
49030;BME280;43337;52.070;4.508;2023-10-13T12:09:43;100302.94;;;19.66;100.00
49030;BME280;43337;52.070;4.508;2023-10-13T12:12:18;100318.41;;;19.72;100.00
49030;BME280;43337;52.070;4.508;2023-10-13T12:14:44;100282.06;;;19.60;100.00
49030;BME280;43337;52.070;4.508;2023-10-13T12:17:20;100301.25;;;19.65;100.00
49030;BME280;43337;52.070;4.508;2023-10-13T12:20:00;100309.16;;;19.76;100.00
49030;BME280;43337;52.070;4.508;2023-10-13T12:22:30;100301.81;;;19.78;100.00
49030;BME280;43337;52.070;4.508;2023-10-13T12:25:05;100285.34;;;19.63;100.00
49030;BME280;43337;52.070;4.508;2023-10-13T12:27:44;100293.13;;;19.76;100.00
49030;BME280;43337;52.070;4.508;2023-10-13T12:30:15;100290.72;;;19.73;100.00
49030;BME280;43337;52.070;4.508;2023-10-13T12:32:50;100285.34;;;19.63;100.00
49030;BME280;43337;52.070;4.508;2023-10-13T12:35:27;100288.31;;;19.70;100.00
49030;BME280;43337;52.070;4.508;2023-10-13T12:37:55;100282.41;;;19.66;100.00
49030;BME280;43337;52.070;4.508;2023-10-13T12:40:30;100266.56;;;19.44;100.00
49030;BME280;43337;52.070;4.508;2023-10-13T12:43:14;100294.84;;;19.46;100.00
49030;BME280;43337;52.070;4.508;2023-10-13T12:45:58;100318.28;;;19.43;100.00
49030;BME280;43337;52.070;4.508;2023-10-13T12:48:42;100299.69;;;19.32;100.00
49030;BME280;43337;52.070;4.508;2023-10-13T12:51:29;100281.31;;;19.38;100.00
49030;BME280;43337;52.070;4.508;2023-10-13T12:53:57;100271.59;;;19.27;100.00
49030;BME280;43337;52.070;4.508;2023-10-13T12:56:30;100286.31;;;19.22;100.00
49030;BME280;43337;52.070;4.508;2023-10-13T12:58:55;100270.56;;;19.19;100.00
49030;BME280;43337;52.070;4.508;2023-10-13T13:01:23;100236.25;;;19.05;100.00
49030;BME280;43337;52.070;4.508;2023-10-13T13:03:54;100262.09;;;19.14;100.00
49030;BME280;43337;52.070;4.508;2023-10-13T13:06:24;100286.13;;;19.14;100.00
49030;BME280;43337;52.070;4.508;2023-10-13T13:08:58;100289.66;;;19.14;100.00
49030;BME280;43337;52.070;4.508;2023-10-13T13:11:25;100280.03;;;19.02;100.00
49030;BME280;43337;52.070;4.508;2023-10-13T13:13:51;100279.91;;;19.03;100.00
49030;BME280;43337;52.070;4.508;2023-10-13T13:16:18;100260.75;;;18.89;100.00
49030;BME280;43337;52.070;4.508;2023-10-13T13:18:46;100288.22;;;19.10;100.00
49030;BME280;43337;52.070;4.508;2023-10-13T13:21:11;100273.06;;;19.11;100.00
49030;BME280;43337;52.070;4.508;2023-10-13T13:23:45;100255.91;;;19.03;100.00
49030;BME280;43337;52.070;4.508;2023-10-13T13:26:10;100279.53;;;19.18;100.00
49030;BME280;43337;52.070;4.508;2023-10-13T13:28:43;100271.28;;;19.21;100.00
49030;BME280;43337;52.070;4.508;2023-10-13T13:31:09;100261.81;;;19.07;100.00
49030;BME280;43337;52.070;4.508;2023-10-13T13:33:35;100286.31;;;19.22;100.00
49030;BME280;43337;52.070;4.508;2023-10-13T13:36:07;100293.44;;;19.12;100.00